createdAt,value
2017-08-02T00:00:39.388Z,0
2017-08-02T00:01:48.548Z,0
2017-08-02T00:02:57.756Z,0
2017-08-02T00:04:06.945Z,0
2017-08-02T00:05:16.071Z,0
2017-08-02T00:06:25.117Z,0
2017-08-02T00:07:34.432Z,0
2017-08-02T00:08:43.402Z,0
2017-08-02T00:09:52.481Z,0
2017-08-02T00:11:01.771Z,0
2017-08-02T00:12:10.868Z,0
2017-08-02T00:13:20.196Z,0
2017-08-02T00:14:29.438Z,0
2017-08-02T00:15:38.527Z,0
2017-08-02T00:16:47.599Z,0
2017-08-02T00:17:56.720Z,0
2017-08-02T00:19:05.930Z,0
2017-08-02T00:20:15.478Z,0
2017-08-02T00:21:24.879Z,0
2017-08-02T00:22:33.962Z,0
2017-08-02T00:23:43.306Z,0
2017-08-02T00:24:52.311Z,0
2017-08-02T00:26:01.478Z,0
2017-08-02T00:27:10.797Z,0
2017-08-02T00:28:19.939Z,0
2017-08-02T00:29:29.235Z,0
2017-08-02T00:30:38.370Z,0
2017-08-02T00:31:47.459Z,0
2017-08-02T00:32:56.894Z,0
2017-08-02T00:34:06.158Z,0
2017-08-02T00:35:15.234Z,0
2017-08-02T00:36:24.428Z,0
2017-08-02T00:37:33.653Z,0
2017-08-02T00:38:42.846Z,0
2017-08-02T00:39:52.151Z,0
2017-08-02T00:41:01.341Z,0
2017-08-02T00:42:10.310Z,0
2017-08-02T00:43:19.277Z,0
2017-08-02T00:44:28.235Z,0
2017-08-02T00:45:37.195Z,0
2017-08-02T00:46:46.157Z,0
2017-08-02T00:47:55.116Z,0
2017-08-02T00:49:04.070Z,0
2017-08-02T00:50:13.031Z,0
2017-08-02T00:51:22.324Z,0
2017-08-02T00:52:31.286Z,0
2017-08-02T00:53:40.244Z,0
2017-08-02T00:54:49.531Z,0
2017-08-02T00:55:58.497Z,0
2017-08-02T00:57:07.470Z,0
2017-08-02T00:58:16.464Z,0
2017-08-02T00:59:25.444Z,0
2017-08-02T01:00:34.404Z,0
2017-08-02T01:01:43.363Z,0
2017-08-02T01:02:52.322Z,0
2017-08-02T01:04:01.275Z,0
2017-08-02T01:05:10.237Z,0
2017-08-02T01:06:19.203Z,0
2017-08-02T01:07:28.183Z,0
2017-08-02T01:08:37.144Z,0
2017-08-02T01:09:46.109Z,0
2017-08-02T01:10:55.395Z,0
2017-08-02T01:12:04.358Z,0
2017-08-02T01:13:13.326Z,0
2017-08-02T01:14:22.302Z,0
2017-08-02T01:15:31.262Z,0
2017-08-02T01:16:40.222Z,0
2017-08-02T01:17:49.178Z,0
2017-08-02T01:18:58.143Z,0
2017-08-02T01:20:07.103Z,0
2017-08-02T01:21:16.054Z,0
2017-08-02T01:22:25.024Z,0
2017-08-02T01:23:34.312Z,0
2017-08-02T01:24:43.282Z,0
2017-08-02T01:25:52.253Z,0
2017-08-02T01:27:01.217Z,0
2017-08-02T01:28:10.520Z,0
2017-08-02T01:29:19.477Z,0
2017-08-02T01:30:28.436Z,0
2017-08-02T01:31:37.398Z,0
2017-08-02T01:32:46.684Z,0
2017-08-02T01:33:55.639Z,0
2017-08-02T01:35:04.611Z,0
2017-08-02T01:36:13.570Z,0
2017-08-02T01:37:22.532Z,0
2017-08-02T01:38:31.499Z,0
2017-08-02T01:39:40.464Z,0
2017-08-02T01:40:49.665Z,0
2017-08-02T01:41:59.044Z,0
2017-08-02T01:43:08.045Z,0
2017-08-02T01:44:17.003Z,0
2017-08-02T01:45:26.290Z,0
2017-08-02T01:46:35.246Z,0
2017-08-02T01:47:44.216Z,0
2017-08-02T01:48:53.171Z,0
2017-08-02T01:50:02.138Z,0
2017-08-02T01:51:11.090Z,0
2017-08-02T01:52:20.053Z,0
2017-08-02T01:53:29.044Z,0
2017-08-02T01:54:38.009Z,0
2017-08-02T01:55:46.970Z,0
2017-08-02T01:56:55.944Z,0
2017-08-02T01:58:04.909Z,0
2017-08-02T01:59:13.873Z,0
2017-08-02T02:00:22.828Z,0
2017-08-02T02:01:31.810Z,0
2017-08-02T02:02:40.777Z,0
2017-08-02T02:03:50.386Z,0
2017-08-02T02:04:59.349Z,0
2017-08-02T02:06:08.312Z,0
2017-08-02T02:07:17.263Z,0
2017-08-02T02:08:26.227Z,0
2017-08-02T02:09:35.195Z,0
2017-08-02T02:10:44.157Z,0
2017-08-02T02:11:53.125Z,0
2017-08-02T02:13:02.085Z,0
2017-08-02T02:14:11.045Z,0
2017-08-02T02:15:20.350Z,0
2017-08-02T02:16:29.624Z,0
2017-08-02T02:17:38.592Z,0
2017-08-02T02:18:47.557Z,0
2017-08-02T02:19:56.530Z,0
2017-08-02T02:21:05.500Z,0
2017-08-02T02:22:14.471Z,0
2017-08-02T02:23:23.431Z,0
2017-08-02T02:24:32.401Z,0
2017-08-02T02:25:41.378Z,0
2017-08-02T02:26:50.355Z,0
2017-08-02T02:27:59.319Z,0
2017-08-02T02:29:08.281Z,0
2017-08-02T02:30:17.250Z,0
2017-08-02T02:31:26.205Z,0
2017-08-02T02:32:35.170Z,0
2017-08-02T02:33:44.455Z,0
2017-08-02T02:34:53.418Z,0
2017-08-02T02:36:02.370Z,0
2017-08-02T02:37:11.326Z,0
2017-08-02T02:38:20.287Z,0
2017-08-02T02:39:29.249Z,0
2017-08-02T02:40:38.213Z,0
2017-08-02T02:41:47.194Z,0
2017-08-02T02:42:56.158Z,0
2017-08-02T02:44:05.129Z,0
2017-08-02T02:45:14.427Z,0
2017-08-02T02:46:23.392Z,0
2017-08-02T02:47:32.364Z,0
2017-08-02T02:48:41.653Z,0
2017-08-02T02:49:50.622Z,0
2017-08-02T02:50:59.582Z,0
2017-08-02T02:52:08.540Z,0
2017-08-02T02:53:17.504Z,0
2017-08-02T02:54:26.466Z,0
2017-08-02T02:55:35.420Z,0
2017-08-02T02:56:44.383Z,0
2017-08-02T02:57:53.349Z,0
2017-08-02T02:59:02.313Z,0
2017-08-02T03:00:11.280Z,0
2017-08-02T03:01:20.237Z,0
2017-08-02T03:02:29.193Z,0
2017-08-02T03:03:38.149Z,0
2017-08-02T03:04:47.440Z,0
2017-08-02T03:05:56.405Z,4
2017-08-02T03:07:05.371Z,4
2017-08-02T03:08:14.335Z,4
2017-08-02T03:09:23.301Z,0
2017-08-02T03:10:32.584Z,4
2017-08-02T03:11:41.865Z,4
2017-08-02T03:12:50.829Z,4
2017-08-02T03:13:59.794Z,4
2017-08-02T03:15:08.760Z,4
2017-08-02T03:16:17.720Z,8
2017-08-02T03:17:26.679Z,4
2017-08-02T03:18:35.645Z,8
2017-08-02T03:19:44.602Z,12
2017-08-02T03:20:53.561Z,8
2017-08-02T03:22:02.517Z,12
2017-08-02T03:23:11.810Z,12
2017-08-02T03:24:20.775Z,12
2017-08-02T03:25:30.049Z,16
2017-08-02T03:26:39.010Z,16
2017-08-02T03:27:47.969Z,20
2017-08-02T03:28:56.928Z,20
2017-08-02T03:30:05.898Z,20
2017-08-02T03:31:14.882Z,24
2017-08-02T03:32:23.844Z,24
2017-08-02T03:33:33.129Z,24
2017-08-02T03:34:42.091Z,28
2017-08-02T03:35:51.062Z,32
2017-08-02T03:37:00.020Z,32
2017-08-02T03:38:08.981Z,36
2017-08-02T03:39:17.938Z,36
2017-08-02T03:40:26.897Z,40
2017-08-02T03:41:35.870Z,44
2017-08-02T03:42:44.825Z,48
2017-08-02T03:43:53.776Z,48
2017-08-02T03:45:02.744Z,52
2017-08-02T03:46:11.699Z,56
2017-08-02T03:47:20.659Z,60
2017-08-02T03:48:29.620Z,68
2017-08-02T03:49:38.575Z,76
2017-08-02T03:50:47.539Z,84
2017-08-02T03:51:56.500Z,92
2017-08-02T03:53:05.462Z,100
2017-08-02T03:54:14.425Z,104
2017-08-02T03:55:23.389Z,108
2017-08-02T03:56:32.356Z,124
2017-08-02T03:57:41.316Z,128
2017-08-02T03:58:50.604Z,136
2017-08-02T03:59:59.555Z,152
2017-08-02T04:01:08.523Z,148
2017-08-02T04:02:17.495Z,160
2017-08-02T04:03:26.794Z,164
2017-08-02T04:04:36.072Z,164
2017-08-02T04:05:45.031Z,164
2017-08-02T04:06:53.991Z,180
2017-08-02T04:08:02.945Z,220
2017-08-02T04:09:11.896Z,196
2017-08-02T04:10:20.853Z,192
2017-08-02T04:11:29.822Z,192
2017-08-02T04:12:38.794Z,168
2017-08-02T04:13:47.757Z,172
2017-08-02T04:14:56.721Z,204
2017-08-02T04:16:05.691Z,168
2017-08-02T04:17:14.653Z,176
2017-08-02T04:18:23.608Z,164
2017-08-02T04:19:32.567Z,176
2017-08-02T04:20:41.535Z,196
2017-08-02T04:21:50.814Z,196
2017-08-02T04:23:00.108Z,212
2017-08-02T04:24:09.079Z,160
2017-08-02T04:25:18.044Z,196
2017-08-02T04:26:27.331Z,204
2017-08-02T04:27:36.301Z,288
2017-08-02T04:28:45.261Z,272
2017-08-02T04:29:54.220Z,316
2017-08-02T04:31:03.179Z,284
2017-08-02T04:32:12.142Z,296
2017-08-02T04:33:21.096Z,280
2017-08-02T04:34:30.057Z,344
2017-08-02T04:35:39.026Z,336
2017-08-02T04:36:47.987Z,308
2017-08-02T04:37:56.952Z,220
2017-08-02T04:39:05.909Z,196
2017-08-02T04:40:14.874Z,216
2017-08-02T04:41:23.829Z,212
2017-08-02T04:42:32.791Z,216
2017-08-02T04:43:41.763Z,216
2017-08-02T04:44:50.729Z,240
2017-08-02T04:45:59.691Z,248
2017-08-02T04:47:08.642Z,268
2017-08-02T04:48:17.620Z,288
2017-08-02T04:49:26.899Z,292
2017-08-02T04:50:35.857Z,300
2017-08-02T04:51:44.839Z,300
2017-08-02T04:52:53.793Z,292
2017-08-02T04:54:02.748Z,248
2017-08-02T04:55:11.714Z,252
2017-08-02T04:56:20.674Z,284
2017-08-02T04:57:29.640Z,292
2017-08-02T04:58:38.616Z,312
2017-08-02T04:59:47.575Z,328
2017-08-02T05:00:56.544Z,320
2017-08-02T05:02:05.506Z,344
2017-08-02T05:03:14.467Z,372
2017-08-02T05:04:23.432Z,404
2017-08-02T05:05:32.390Z,440
2017-08-02T05:06:41.350Z,468
2017-08-02T05:07:50.627Z,492
2017-08-02T05:08:59.915Z,512
2017-08-02T05:10:08.900Z,532
2017-08-02T05:11:17.855Z,536
2017-08-02T05:12:27.135Z,528
2017-08-02T05:13:36.096Z,604
2017-08-02T05:14:45.706Z,648
2017-08-02T05:15:54.663Z,648
2017-08-02T05:17:03.636Z,644
2017-08-02T05:18:12.603Z,608
2017-08-02T05:19:21.569Z,488
2017-08-02T05:20:30.527Z,484
2017-08-02T05:21:39.488Z,560
2017-08-02T05:22:48.455Z,656
2017-08-02T05:23:57.407Z,812
2017-08-02T05:25:06.372Z,784
2017-08-02T05:26:15.339Z,888
2017-08-02T05:27:24.304Z,796
2017-08-02T05:28:33.281Z,728
2017-08-02T05:29:42.244Z,728
2017-08-02T05:30:51.235Z,748
2017-08-02T05:32:00.521Z,744
2017-08-02T05:33:09.471Z,812
2017-08-02T05:34:18.428Z,680
2017-08-02T05:35:27.724Z,716
2017-08-02T05:36:36.693Z,1048
2017-08-02T05:37:45.978Z,928
2017-08-02T05:38:54.937Z,904
2017-08-02T05:40:03.900Z,880
2017-08-02T05:41:12.860Z,880
2017-08-02T05:42:21.822Z,976
2017-08-02T05:43:30.789Z,884
2017-08-02T05:44:40.087Z,936
2017-08-02T05:45:49.053Z,1012
2017-08-02T05:46:58.018Z,924
2017-08-02T05:48:06.980Z,924
2017-08-02T05:49:15.940Z,888
2017-08-02T05:50:24.905Z,1056
2017-08-02T05:51:33.871Z,1072
2017-08-02T05:52:42.835Z,1008
2017-08-02T05:53:51.879Z,920
2017-08-02T05:55:00.904Z,936
2017-08-02T05:56:09.863Z,936
2017-08-02T05:57:18.814Z,948
2017-08-02T05:58:27.764Z,852
2017-08-02T05:59:36.744Z,888
2017-08-02T06:00:45.697Z,904
2017-08-02T06:01:54.658Z,924
2017-08-02T06:03:03.625Z,936
2017-08-02T06:04:12.909Z,992
2017-08-02T06:05:21.881Z,956
2017-08-02T06:06:30.848Z,1184
2017-08-02T06:07:39.810Z,1300
2017-08-02T06:08:48.771Z,1416
2017-08-02T06:09:58.052Z,1568
2017-08-02T06:11:07.011Z,1772
2017-08-02T06:12:15.977Z,1752
2017-08-02T06:13:24.940Z,1916
2017-08-02T06:14:33.937Z,1888
2017-08-02T06:15:43.261Z,1824
2017-08-02T06:16:52.245Z,1712
2017-08-02T06:18:01.528Z,1592
2017-08-02T06:19:10.495Z,1440
2017-08-02T06:20:19.465Z,1280
2017-08-02T06:21:28.424Z,1268
2017-08-02T06:22:37.386Z,1216
2017-08-02T06:23:46.348Z,1268
2017-08-02T06:24:55.306Z,1340
2017-08-02T06:26:04.274Z,1404
2017-08-02T06:27:13.252Z,1272
2017-08-02T06:28:22.222Z,1356
2017-08-02T06:29:31.519Z,1504
2017-08-02T06:30:40.490Z,1672
2017-08-02T06:31:49.457Z,1520
2017-08-02T06:32:58.413Z,1580
2017-08-02T06:34:07.373Z,1736
2017-08-02T06:35:16.335Z,1584
2017-08-02T06:36:25.589Z,1668
2017-08-02T06:37:34.765Z,1744
2017-08-02T06:38:43.792Z,1628
2017-08-02T06:39:52.937Z,1584
2017-08-02T06:41:02.020Z,1532
2017-08-02T06:42:11.148Z,1508
2017-08-02T06:43:20.240Z,1564
2017-08-02T06:44:29.435Z,1632
2017-08-02T06:45:38.485Z,1504
2017-08-02T06:46:47.540Z,1472
2017-08-02T06:47:56.574Z,1440
2017-08-02T06:49:05.613Z,1376
2017-08-02T06:50:14.790Z,1356
2017-08-02T06:51:23.849Z,1344
2017-08-02T06:52:32.922Z,1304
2017-08-02T06:53:42.337Z,1284
2017-08-02T06:54:51.407Z,1236
2017-08-02T06:56:00.407Z,1204
2017-08-02T06:57:09.535Z,1176
2017-08-02T06:58:18.635Z,1224
2017-08-02T06:59:27.723Z,1296
2017-08-02T07:00:36.947Z,1280
2017-08-02T07:01:46.042Z,1244
2017-08-02T07:02:55.207Z,1304
2017-08-02T07:04:04.261Z,1320
2017-08-02T07:05:13.333Z,1316
2017-08-02T07:06:22.416Z,1264
2017-08-02T07:07:31.479Z,1256
2017-08-02T07:08:40.472Z,1168
2017-08-02T07:09:49.887Z,1112
2017-08-02T07:10:58.930Z,1368
2017-08-02T07:12:08.051Z,1004
2017-08-02T07:13:17.060Z,1128
2017-08-02T07:14:26.096Z,1236
2017-08-02T07:15:35.065Z,1380
2017-08-02T07:16:44.093Z,1724
2017-08-02T07:17:53.088Z,1884
2017-08-02T07:19:02.462Z,1588
2017-08-02T07:20:11.565Z,1312
2017-08-02T07:21:20.535Z,1316
2017-08-02T07:22:29.585Z,1104
2017-08-02T07:23:38.618Z,1200
2017-08-02T07:24:47.901Z,1088
2017-08-02T07:25:56.970Z,1140
2017-08-02T07:27:05.944Z,1512
2017-08-02T07:28:14.905Z,1684
2017-08-02T07:29:23.877Z,1928
2017-08-02T07:30:32.842Z,1932
2017-08-02T07:31:41.908Z,1972
2017-08-02T07:32:50.882Z,2024
2017-08-02T07:33:59.920Z,2308
2017-08-02T07:35:09.433Z,2612
2017-08-02T07:36:18.578Z,2704
2017-08-02T07:37:27.567Z,2708
2017-08-02T07:38:36.558Z,2828
2017-08-02T07:39:45.526Z,2932
2017-08-02T07:40:54.815Z,2724
2017-08-02T07:42:03.776Z,2704
2017-08-02T07:43:12.744Z,2672
2017-08-02T07:44:21.706Z,2600
2017-08-02T07:45:30.670Z,2336
2017-08-02T07:46:39.631Z,2472
2017-08-02T07:47:48.594Z,2500
2017-08-02T07:48:57.556Z,2548
2017-08-02T07:50:06.527Z,2604
2017-08-02T07:51:15.492Z,2384
2017-08-02T07:52:24.453Z,2548
2017-08-02T07:53:33.418Z,2384
2017-08-02T07:54:42.388Z,2332
2017-08-02T07:55:51.359Z,2084
2017-08-02T07:57:00.354Z,2176
2017-08-02T07:58:09.309Z,2216
2017-08-02T07:59:18.273Z,2560
2017-08-02T08:00:27.228Z,2188
2017-08-02T08:01:36.514Z,2184
2017-08-02T08:02:45.487Z,2484
2017-08-02T08:03:54.448Z,2348
2017-08-02T08:05:03.410Z,2320
2017-08-02T08:06:12.371Z,2072
2017-08-02T08:07:21.331Z,2356
2017-08-02T08:08:30.311Z,2328
2017-08-02T08:09:39.271Z,2696
2017-08-02T08:10:48.225Z,2872
2017-08-02T08:11:57.196Z,2872
2017-08-02T08:13:06.156Z,2700
2017-08-02T08:14:15.115Z,2148
2017-08-02T08:15:24.084Z,2420
2017-08-02T08:16:33.056Z,2964
2017-08-02T08:17:42.016Z,3372
2017-08-02T08:18:50.980Z,3248
2017-08-02T08:20:00.265Z,3212
2017-08-02T08:21:09.229Z,3016
2017-08-02T08:22:18.190Z,3432
2017-08-02T08:23:27.152Z,3536
2017-08-02T08:24:36.119Z,3036
2017-08-02T08:25:45.084Z,2084
2017-08-02T08:26:55.201Z,2220
2017-08-02T08:28:05.051Z,2876
2017-08-02T08:29:14.495Z,2340
2017-08-02T08:30:23.460Z,2104
2017-08-02T08:31:32.420Z,2052
2017-08-02T08:32:41.386Z,2140
2017-08-02T08:33:50.354Z,2156
2017-08-02T08:34:59.315Z,2252
2017-08-02T08:36:08.276Z,2340
2017-08-02T08:37:17.231Z,2348
2017-08-02T08:38:26.196Z,2164
2017-08-02T08:39:35.153Z,1960
2017-08-02T08:40:44.116Z,1824
2017-08-02T08:41:53.080Z,1768
2017-08-02T08:43:02.046Z,1624
2017-08-02T08:44:11.003Z,1656
2017-08-02T08:45:19.969Z,2212
2017-08-02T08:46:28.943Z,2076
2017-08-02T08:47:37.906Z,2472
2017-08-02T08:48:47.193Z,2244
2017-08-02T08:49:56.165Z,2144
2017-08-02T08:51:05.133Z,1780
2017-08-02T08:52:14.087Z,1736
2017-08-02T08:53:23.710Z,1944
2017-08-02T08:54:33.006Z,2012
2017-08-02T08:55:41.973Z,2416
2017-08-02T08:56:50.927Z,1976
2017-08-02T08:57:59.887Z,1644
2017-08-02T08:59:08.875Z,1360
2017-08-02T09:00:17.850Z,1492
2017-08-02T09:01:26.823Z,1520
2017-08-02T09:02:35.791Z,1568
2017-08-02T09:03:44.758Z,2096
2017-08-02T09:04:53.719Z,2020
2017-08-02T09:06:02.695Z,2364
2017-08-02T09:07:11.660Z,3528
2017-08-02T09:08:20.613Z,2592
2017-08-02T09:09:29.586Z,3456
2017-08-02T09:10:38.550Z,3444
2017-08-02T09:11:47.510Z,3564
2017-08-02T09:12:56.477Z,3084
2017-08-02T09:14:05.441Z,3204
2017-08-02T09:15:14.411Z,3036
2017-08-02T09:16:23.382Z,3100
2017-08-02T09:17:32.669Z,2852
2017-08-02T09:18:41.634Z,2932
2017-08-02T09:19:50.592Z,3132
2017-08-02T09:20:59.554Z,3156
2017-08-02T09:22:08.517Z,3324
2017-08-02T09:23:17.481Z,3296
2017-08-02T09:24:26.446Z,3416
2017-08-02T09:25:35.402Z,3196
2017-08-02T09:26:44.370Z,3252
2017-08-02T09:27:53.325Z,3120
2017-08-02T09:29:02.286Z,2608
2017-08-02T09:30:11.250Z,2128
2017-08-02T09:31:20.222Z,2312
2017-08-02T09:32:29.188Z,1948
2017-08-02T09:33:38.156Z,1880
2017-08-02T09:34:47.144Z,1372
2017-08-02T09:35:56.106Z,1128
2017-08-02T09:37:05.061Z,1076
2017-08-02T09:38:14.027Z,964
2017-08-02T09:39:23.318Z,1016
2017-08-02T09:40:32.346Z,1340
2017-08-02T09:41:41.309Z,2692
2017-08-02T09:42:50.265Z,1948
2017-08-02T09:43:59.220Z,3112
2017-08-02T09:45:08.509Z,2424
2017-08-02T09:46:17.479Z,2148
2017-08-02T09:47:26.762Z,1944
2017-08-02T09:48:35.738Z,1956
2017-08-02T09:49:45.024Z,2612
2017-08-02T09:50:54.994Z,2564
2017-08-02T09:52:03.962Z,3248
2017-08-02T09:53:12.918Z,3168
2017-08-02T09:54:21.891Z,3256
2017-08-02T09:55:31.175Z,3832
2017-08-02T09:56:40.145Z,3564
2017-08-02T09:57:49.112Z,3452
2017-08-02T09:58:58.182Z,3556
2017-08-02T10:00:07.544Z,3760
2017-08-02T10:01:16.522Z,3536
2017-08-02T10:02:25.817Z,3424
2017-08-02T10:03:34.786Z,3364
2017-08-02T10:04:43.751Z,3180
2017-08-02T10:05:52.718Z,3140
2017-08-02T10:07:02.022Z,3024
2017-08-02T10:08:10.987Z,2776
2017-08-02T10:09:19.944Z,2928
2017-08-02T10:10:28.908Z,2824
2017-08-02T10:11:37.873Z,2760
2017-08-02T10:12:46.851Z,3108
2017-08-02T10:13:55.839Z,3400
2017-08-02T10:15:04.816Z,2768
2017-08-02T10:16:14.098Z,2932
2017-08-02T10:17:23.060Z,3808
2017-08-02T10:18:32.030Z,3996
2017-08-02T10:19:41.002Z,3640
2017-08-02T10:20:50.298Z,3228
2017-08-02T10:21:59.265Z,2968
2017-08-02T10:23:08.225Z,3084
2017-08-02T10:24:17.201Z,3320
2017-08-02T10:25:26.168Z,2712
2017-08-02T10:26:35.141Z,2776
2017-08-02T10:27:44.125Z,2568
2017-08-02T10:28:53.085Z,2720
2017-08-02T10:30:02.375Z,1948
2017-08-02T10:31:11.347Z,1820
2017-08-02T10:32:20.308Z,1740
2017-08-02T10:33:29.267Z,1844
2017-08-02T10:34:38.239Z,2492
2017-08-02T10:35:47.198Z,2776
2017-08-02T10:36:56.162Z,2308
2017-08-02T10:38:05.120Z,1988
2017-08-02T10:39:14.083Z,1508
2017-08-02T10:40:23.366Z,1572
2017-08-02T10:41:32.335Z,1636
2017-08-02T10:42:41.291Z,1896
2017-08-02T10:43:50.249Z,2036
2017-08-02T10:44:59.215Z,2196
2017-08-02T10:46:08.653Z,2660
2017-08-02T10:47:18.687Z,2792
2017-08-02T10:48:28.091Z,3552
2017-08-02T10:49:37.063Z,3208
2017-08-02T10:50:46.023Z,3448
2017-08-02T10:51:54.986Z,3052
2017-08-02T10:53:03.951Z,3512
2017-08-02T10:54:12.906Z,3616
2017-08-02T10:55:22.205Z,3024
2017-08-02T10:56:31.185Z,3252
2017-08-02T10:57:40.150Z,3120
2017-08-02T10:58:49.104Z,3228
2017-08-02T10:59:58.070Z,3440
2017-08-02T11:01:07.024Z,2608
2017-08-02T11:02:16.317Z,2208
2017-08-02T11:03:25.312Z,2440
2017-08-02T11:04:34.315Z,3088
2017-08-02T11:05:43.286Z,3524
2017-08-02T11:06:52.308Z,2696
2017-08-02T11:08:01.277Z,2344
2017-08-02T11:09:10.250Z,1940
2017-08-02T11:10:19.212Z,1952
2017-08-02T11:11:28.224Z,1976
2017-08-02T11:12:37.190Z,2560
2017-08-02T11:13:46.161Z,2024
2017-08-02T11:14:55.450Z,1884
2017-08-02T11:16:04.417Z,2496
2017-08-02T11:17:13.787Z,3436
2017-08-02T11:18:22.748Z,3288
2017-08-02T11:19:31.725Z,2696
2017-08-02T11:20:40.686Z,2288
2017-08-02T11:21:49.977Z,1984
2017-08-02T11:22:58.943Z,2340
2017-08-02T11:24:08.567Z,2052
2017-08-02T11:25:17.852Z,1864
2017-08-02T11:26:26.811Z,2260
2017-08-02T11:27:35.769Z,2544
2017-08-02T11:28:44.729Z,2272
2017-08-02T11:29:53.691Z,2332
2017-08-02T11:31:02.662Z,2664
2017-08-02T11:32:11.625Z,2716
2017-08-02T11:33:20.585Z,2256
2017-08-02T11:34:29.540Z,2680
2017-08-02T11:35:38.496Z,3032
2017-08-02T11:36:47.471Z,3036
2017-08-02T11:37:56.430Z,3432
2017-08-02T11:39:05.393Z,2664
2017-08-02T11:40:14.362Z,2800
2017-08-02T11:41:23.366Z,3308
2017-08-02T11:42:32.326Z,3756
2017-08-02T11:43:41.282Z,3040
2017-08-02T11:44:50.272Z,2440
2017-08-02T11:45:59.238Z,2948
2017-08-02T11:47:08.202Z,2504
2017-08-02T11:48:17.514Z,1724
2017-08-02T11:49:26.475Z,1500
2017-08-02T11:50:35.448Z,1584
2017-08-02T11:51:44.405Z,1960
2017-08-02T11:52:53.695Z,2440
2017-08-02T11:54:02.692Z,2896
2017-08-02T11:55:11.667Z,3056
2017-08-02T11:56:20.635Z,3272
2017-08-02T11:57:29.595Z,3052
2017-08-02T11:58:38.552Z,3220
2017-08-02T11:59:47.512Z,2896
2017-08-02T12:00:56.488Z,2312
2017-08-02T12:02:05.460Z,2360
2017-08-02T12:03:14.419Z,2884
2017-08-02T12:04:23.418Z,2720
2017-08-02T12:05:32.377Z,2588
2017-08-02T12:06:41.669Z,2632
2017-08-02T12:07:50.637Z,2512
2017-08-02T12:08:59.596Z,2508
2017-08-02T12:10:08.898Z,2616
2017-08-02T12:11:17.864Z,2736
2017-08-02T12:12:26.833Z,2784
2017-08-02T12:13:35.803Z,2772
2017-08-02T12:14:44.777Z,2900
2017-08-02T12:15:53.743Z,2952
2017-08-02T12:17:02.711Z,2932
2017-08-02T12:18:11.733Z,2780
2017-08-02T12:19:20.817Z,2788
2017-08-02T12:20:30.306Z,2680
2017-08-02T12:21:39.340Z,3020
2017-08-02T12:22:48.818Z,2768
2017-08-02T12:23:57.796Z,2588
2017-08-02T12:25:06.861Z,2292
2017-08-02T12:26:15.857Z,2240
2017-08-02T12:27:24.819Z,2136
2017-08-02T12:28:34.151Z,2296
2017-08-02T12:29:43.321Z,2380
2017-08-02T12:30:52.473Z,2312
2017-08-02T12:32:01.675Z,2144
2017-08-02T12:33:10.960Z,2228
2017-08-02T12:34:19.926Z,2304
2017-08-02T12:35:28.994Z,2348
2017-08-02T12:36:38.298Z,2344
2017-08-02T12:37:47.464Z,2496
2017-08-02T12:38:57.077Z,2536
2017-08-02T12:40:06.047Z,2712
2017-08-02T12:41:15.020Z,2796
2017-08-02T12:42:23.990Z,2724
2017-08-02T12:43:33.053Z,2672
2017-08-02T12:44:42.391Z,2472
2017-08-02T12:45:51.369Z,2264
2017-08-02T12:47:00.369Z,2444
2017-08-02T12:48:09.362Z,2812
2017-08-02T12:49:18.349Z,2956
2017-08-02T12:50:27.335Z,2808
2017-08-02T12:51:36.318Z,2708
2017-08-02T12:52:45.310Z,2668
2017-08-02T12:53:54.292Z,2540
2017-08-02T12:55:03.276Z,2508
2017-08-02T12:56:12.272Z,2576
2017-08-02T12:57:21.256Z,2432
2017-08-02T12:58:30.243Z,2196
2017-08-02T12:59:39.226Z,2180
2017-08-02T13:00:48.212Z,1912
2017-08-02T13:01:57.204Z,2008
2017-08-02T13:03:06.193Z,2128
2017-08-02T13:04:15.179Z,2384
2017-08-02T13:05:24.158Z,2500
2017-08-02T13:06:33.149Z,2316
2017-08-02T13:07:42.217Z,2212
2017-08-02T13:08:51.203Z,2080
2017-08-02T13:10:00.193Z,2060
2017-08-02T13:11:09.183Z,2116
2017-08-02T13:12:18.174Z,2220
2017-08-02T13:13:27.161Z,2228
2017-08-02T13:14:36.156Z,2168
2017-08-02T13:15:45.154Z,1956
2017-08-02T13:16:54.144Z,1972
2017-08-02T13:18:03.139Z,2004
2017-08-02T13:19:12.220Z,1992
2017-08-02T13:20:21.203Z,1760
2017-08-02T13:21:30.208Z,1820
2017-08-02T13:22:39.525Z,1732
2017-08-02T13:23:48.507Z,1708
2017-08-02T13:24:57.465Z,1936
2017-08-02T13:26:06.427Z,2200
2017-08-02T13:27:15.390Z,2376
2017-08-02T13:28:24.355Z,2348
2017-08-02T13:29:33.323Z,2108
2017-08-02T13:30:42.287Z,2220
2017-08-02T13:31:51.580Z,2076
2017-08-02T13:33:00.539Z,2012
2017-08-02T13:34:09.515Z,2096
2017-08-02T13:35:18.485Z,2068
2017-08-02T13:36:27.446Z,1884
2017-08-02T13:37:36.408Z,1924
2017-08-02T13:38:45.370Z,2044
2017-08-02T13:39:54.342Z,1984
2017-08-02T13:41:03.309Z,2064
2017-08-02T13:42:12.275Z,2204
2017-08-02T13:43:21.574Z,2100
2017-08-02T13:44:30.864Z,2304
2017-08-02T13:45:39.826Z,2656
2017-08-02T13:46:48.790Z,2524
2017-08-02T13:47:57.751Z,2660
2017-08-02T13:49:06.732Z,2728
2017-08-02T13:50:15.707Z,2488
2017-08-02T13:51:24.677Z,2212
2017-08-02T13:52:33.980Z,2060
2017-08-02T13:53:42.947Z,2172
2017-08-02T13:54:52.226Z,2104
2017-08-02T13:56:01.210Z,2448
2017-08-02T13:57:10.179Z,2268
2017-08-02T13:58:19.151Z,1944
2017-08-02T13:59:28.438Z,1796
2017-08-02T14:00:37.407Z,1708
2017-08-02T14:01:46.365Z,1576
2017-08-02T14:02:55.326Z,1656
2017-08-02T14:04:04.294Z,1900
2017-08-02T14:05:13.263Z,2344
2017-08-02T14:06:22.226Z,2160
2017-08-02T14:07:31.188Z,2220
2017-08-02T14:08:40.155Z,2060
2017-08-02T14:09:49.118Z,2100
2017-08-02T14:10:58.088Z,1620
2017-08-02T14:12:07.711Z,1480
2017-08-02T14:13:16.671Z,1484
2017-08-02T14:14:25.961Z,1120
2017-08-02T14:15:34.915Z,1244
2017-08-02T14:16:43.873Z,1536
2017-08-02T14:17:52.833Z,1552
2017-08-02T14:19:01.802Z,1660
2017-08-02T14:20:10.782Z,1460
2017-08-02T14:21:19.739Z,1388
2017-08-02T14:22:28.706Z,1228
2017-08-02T14:23:37.675Z,1188
2017-08-02T14:24:46.643Z,956
2017-08-02T14:25:55.605Z,848
2017-08-02T14:27:04.566Z,1252
2017-08-02T14:28:13.534Z,1548
2017-08-02T14:29:22.501Z,1688
2017-08-02T14:30:31.558Z,1660
2017-08-02T14:31:40.520Z,1652
2017-08-02T14:32:49.486Z,1604
2017-08-02T14:33:58.448Z,1508
2017-08-02T14:35:07.426Z,1316
2017-08-02T14:36:16.621Z,1236
2017-08-02T14:37:25.734Z,1092
2017-08-02T14:38:34.870Z,1088
2017-08-02T14:39:43.842Z,1088
2017-08-02T14:40:52.803Z,940
2017-08-02T14:42:01.964Z,880
2017-08-02T14:43:11.032Z,1200
2017-08-02T14:44:19.992Z,1224
2017-08-02T14:45:29.361Z,1040
2017-08-02T14:46:38.436Z,908
2017-08-02T14:47:47.449Z,796
2017-08-02T14:48:56.867Z,928
2017-08-02T14:50:05.974Z,1028
2017-08-02T14:51:14.980Z,1128
2017-08-02T14:52:24.003Z,1252
2017-08-02T14:53:33.023Z,1336
2017-08-02T14:54:42.032Z,1544
2017-08-02T14:55:51.176Z,1620
2017-08-02T14:57:00.179Z,1632
2017-08-02T14:58:09.169Z,1644
2017-08-02T14:59:18.159Z,1368
2017-08-02T15:00:27.140Z,1148
2017-08-02T15:01:36.109Z,952
2017-08-02T15:02:45.067Z,884
2017-08-02T15:03:54.049Z,804
2017-08-02T15:05:03.008Z,632
2017-08-02T15:06:12.302Z,760
2017-08-02T15:07:21.278Z,1068
2017-08-02T15:08:30.246Z,1192
2017-08-02T15:09:39.241Z,1256
2017-08-02T15:10:48.231Z,1308
2017-08-02T15:11:57.192Z,1288
2017-08-02T15:13:06.147Z,1320
2017-08-02T15:14:15.117Z,1308
2017-08-02T15:15:24.125Z,1284
2017-08-02T15:16:33.095Z,1188
2017-08-02T15:17:42.054Z,928
2017-08-02T15:18:51.019Z,880
2017-08-02T15:20:00.303Z,912
2017-08-02T15:21:09.261Z,828
2017-08-02T15:22:18.226Z,728
2017-08-02T15:23:27.191Z,608
2017-08-02T15:24:36.159Z,544
2017-08-02T15:25:45.126Z,548
2017-08-02T15:26:54.091Z,504
2017-08-02T15:28:03.061Z,448
2017-08-02T15:29:12.024Z,612
2017-08-02T15:30:20.980Z,752
2017-08-02T15:31:29.950Z,1056
2017-08-02T15:32:38.913Z,1132
2017-08-02T15:33:47.874Z,1212
2017-08-02T15:34:56.835Z,1300
2017-08-02T15:36:05.799Z,1312
2017-08-02T15:37:14.766Z,1300
2017-08-02T15:38:23.740Z,1336
2017-08-02T15:39:33.046Z,1224
2017-08-02T15:40:42.002Z,1060
2017-08-02T15:41:50.957Z,1052
2017-08-02T15:42:59.918Z,1000
2017-08-02T15:44:08.878Z,868
2017-08-02T15:45:17.837Z,772
2017-08-02T15:46:26.797Z,796